Time,TemperatureF,DewpointF,PressureIn,WindDirection,WindDirectionDegrees,WindSpeedMPH,WindSpeedGustMPH,Humidity,HourlyPrecipIn,Conditions,Clouds,dailyrainin,SolarRadiationWatts/m^2,SoftwareType,DateUTC
2013-06-28 00:02:00,79.0,75.0,-100.00,SSW,210,12.0,22.0,87,0.00,,,0.01,0.000000,,2013-06-28 04:02:00,
2013-06-28 00:33:00,78.0,70.0,-100.00,SW,221,10.0,29.0,77,0.00,,,0.01,0.000000,,2013-06-28 04:33:00,
2013-06-28 00:43:00,78.0,70.0,-100.00,SW,221,10.0,29.0,77,0.00,,,0.01,0.000000,,2013-06-28 04:43:00,
2013-06-28 00:53:00,78.0,70.0,-100.00,SW,221,10.0,29.0,77,0.00,,,0.01,0.000000,,2013-06-28 04:53:00,
2013-06-28 01:02:00,78.0,70.0,-100.00,SW,221,10.0,29.0,77,0.00,,,0.01,0.000000,,2013-06-28 05:02:00,
2013-06-28 01:33:00,77.0,71.0,-100.00,SW,222,11.0,21.0,81,0.00,,,0.01,0.000000,,2013-06-28 05:33:00,
2013-06-28 01:43:00,77.0,71.0,-100.00,SW,222,11.0,21.0,81,0.00,,,0.01,0.000000,,2013-06-28 05:43:00,
2013-06-28 01:53:00,77.0,71.0,-100.00,SW,222,11.0,21.0,81,0.00,,,0.01,0.000000,,2013-06-28 05:53:00,
2013-06-28 02:02:00,77.0,71.0,-100.00,SW,222,11.0,21.0,81,0.00,,,0.01,0.000000,,2013-06-28 06:02:00,
2013-06-28 02:34:00,78.0,74.0,-100.00,SSW,212,11.0,20.0,88,0.00,,,0.01,0.000000,,2013-06-28 06:34:00,
2013-06-28 02:43:00,78.0,74.0,-100.00,SSW,212,11.0,20.0,88,0.00,,,0.01,0.000000,,2013-06-28 06:43:00,
2013-06-28 02:52:00,78.0,74.0,-100.00,SSW,212,11.0,20.0,88,0.00,,,0.01,0.000000,,2013-06-28 06:52:00,
2013-06-28 03:01:00,78.0,74.0,-100.00,SSW,212,11.0,20.0,88,0.00,,,0.01,0.000000,,2013-06-28 07:01:00,
2013-06-28 03:33:00,79.0,74.0,-100.00,SW,218,13.0,28.0,86,0.00,,,0.01,0.000000,,2013-06-28 07:33:00,
2013-06-28 03:43:00,79.0,74.0,-100.00,SW,218,13.0,28.0,86,0.00,,,0.01,0.000000,,2013-06-28 07:43:00,
2013-06-28 03:52:00,79.0,74.0,-100.00,SW,218,13.0,28.0,86,0.00,,,0.01,0.000000,,2013-06-28 07:52:00,
2013-06-28 04:02:00,79.0,74.0,-100.00,SW,218,13.0,28.0,86,0.00,,,0.01,0.000000,,2013-06-28 08:02:00,
2013-06-28 04:33:00,79.0,75.0,-100.00,SW,230,14.0,25.0,87,0.00,,,0.01,0.000000,,2013-06-28 08:33:00,
2013-06-28 04:43:00,79.0,75.0,-100.00,SW,230,14.0,25.0,87,0.00,,,0.01,0.000000,,2013-06-28 08:43:00,
2013-06-28 04:52:00,79.0,75.0,-100.00,SW,230,14.0,25.0,87,0.00,,,0.01,0.000000,,2013-06-28 08:52:00,
2013-06-28 05:02:00,79.0,75.0,-100.00,SW,230,14.0,25.0,87,0.00,,,0.01,0.000000,,2013-06-28 09:02:00,
2013-06-28 05:33:00,78.0,75.0,-100.00,SW,226,11.0,29.0,90,0.03,,,0.04,0.000000,,2013-06-28 09:33:00,
2013-06-28 05:42:00,78.0,75.0,-100.00,SW,226,11.0,29.0,90,0.03,,,0.04,0.000000,,2013-06-28 09:42:00,
2013-06-28 05:52:00,78.0,75.0,-100.00,SW,226,11.0,29.0,90,0.03,,,0.04,0.000000,,2013-06-28 09:52:00,
2013-06-28 06:02:00,78.0,75.0,-100.00,SW,226,11.0,29.0,90,0.03,,,0.04,0.000000,,2013-06-28 10:02:00,
2013-06-28 06:33:00,79.0,75.0,-100.00,SW,226,12.0,21.0,87,0.00,,,0.04,0.000000,,2013-06-28 10:33:00,
2013-06-28 06:42:00,79.0,75.0,-100.00,SW,226,12.0,21.0,87,0.00,,,0.04,0.000000,,2013-06-28 10:42:00,
2013-06-28 06:52:00,79.0,75.0,-100.00,SW,226,12.0,21.0,87,0.00,,,0.04,0.000000,,2013-06-28 10:52:00,
2013-06-28 07:02:00,79.0,75.0,-100.00,SW,226,12.0,21.0,87,0.00,,,0.04,0.000000,,2013-06-28 11:02:00,
2013-06-28 07:34:00,79.0,75.0,-100.00,SW,228,10.0,20.0,88,0.00,,,0.04,45.000000,,2013-06-28 11:34:00,
2013-06-28 07:43:00,79.0,75.0,-100.00,SW,228,10.0,20.0,88,0.00,,,0.04,45.000000,,2013-06-28 11:43:00,
2013-06-28 07:53:00,79.0,75.0,-100.00,SW,228,10.0,20.0,88,0.00,,,0.04,45.000000,,2013-06-28 11:53:00,
2013-06-28 08:02:00,79.0,75.0,-100.00,SW,228,10.0,20.0,88,0.00,,,0.04,45.000000,,2013-06-28 12:02:00,
2013-06-28 08:34:00,79.0,75.0,-100.00,SW,236,11.0,20.0,88,0.00,,,0.04,116.000000,,2013-06-28 12:34:00,
2013-06-28 08:43:00,79.0,75.0,-100.00,SW,236,11.0,20.0,88,0.00,,,0.04,116.000000,,2013-06-28 12:43:00,
2013-06-28 08:52:00,79.0,75.0,-100.00,SW,236,11.0,20.0,88,0.00,,,0.04,116.000000,,2013-06-28 12:52:00,
2013-06-28 09:01:00,79.0,75.0,-100.00,SW,236,11.0,20.0,88,0.00,,,0.04,116.000000,,2013-06-28 13:01:00,
2013-06-28 09:43:00,80.0,75.0,-100.00,SW,233,10.0,21.0,86,0.00,,,0.04,146.000000,,2013-06-28 13:43:00,
2013-06-28 09:53:00,80.0,75.0,-100.00,SW,233,10.0,21.0,86,0.00,,,0.04,146.000000,,2013-06-28 13:53:00,
2013-06-28 10:02:00,80.0,75.0,-100.00,SW,233,10.0,21.0,86,0.00,,,0.04,146.000000,,2013-06-28 14:02:00,
2013-06-28 10:33:00,81.0,75.0,-100.00,SSW,210,10.0,18.0,83,0.00,,,0.04,280.000000,,2013-06-28 14:33:00,
2013-06-28 10:44:00,81.0,75.0,-100.00,SSW,210,10.0,18.0,83,0.00,,,0.04,280.000000,,2013-06-28 14:44:00,
2013-06-28 10:53:00,81.0,75.0,-100.00,SSW,210,10.0,18.0,83,0.00,,,0.04,280.000000,,2013-06-28 14:53:00,
2013-06-28 11:02:00,81.0,75.0,-100.00,SSW,210,10.0,18.0,83,0.00,,,0.04,280.000000,,2013-06-28 15:02:00,
2013-06-28 11:34:00,82.0,75.0,-100.00,SW,218,12.0,22.0,79,0.00,,,0.04,674.000000,,2013-06-28 15:34:00,
2013-06-28 11:43:00,82.0,75.0,-100.00,SW,218,12.0,22.0,79,0.00,,,0.04,674.000000,,2013-06-28 15:43:00,
2013-06-28 11:52:00,82.0,75.0,-100.00,SW,218,12.0,22.0,79,0.00,,,0.04,674.000000,,2013-06-28 15:52:00,
2013-06-28 12:02:00,82.0,75.0,-100.00,SW,218,12.0,22.0,79,0.00,,,0.04,674.000000,,2013-06-28 16:02:00,
2013-06-28 12:44:00,83.0,75.0,-100.00,SW,230,15.0,25.0,76,0.00,,,0.04,962.000000,,2013-06-28 16:44:00,
2013-06-28 12:53:00,83.0,75.0,-100.00,SW,230,15.0,25.0,76,0.00,,,0.04,962.000000,,2013-06-28 16:53:00,
2013-06-28 13:02:00,83.0,75.0,-100.00,SW,230,15.0,25.0,76,0.00,,,0.04,962.000000,,2013-06-28 17:02:00,
2013-06-28 13:33:00,84.0,75.0,-100.00,SW,224,14.0,24.0,74,0.00,,,-99.99,1063.000000,,2013-06-28 17:33:00,
2013-06-28 13:44:00,84.0,75.0,-100.00,SW,224,14.0,24.0,74,0.00,,,-99.99,1063.000000,,2013-06-28 17:44:00,
2013-06-28 13:52:00,84.0,75.0,-100.00,SW,224,14.0,24.0,74,0.00,,,-99.99,1063.000000,,2013-06-28 17:52:00,
2013-06-28 14:02:00,84.0,75.0,-100.00,SW,224,14.0,24.0,74,0.00,,,-99.99,1063.000000,,2013-06-28 18:02:00,
2013-06-28 14:43:00,84.0,75.0,-100.00,SW,231,13.0,23.0,75,0.00,,,0.04,1066.000000,,2013-06-28 18:43:00,
2013-06-28 14:52:00,84.0,75.0,-100.00,SW,231,13.0,23.0,75,0.00,,,0.04,1066.000000,,2013-06-28 18:52:00,
2013-06-28 15:01:00,84.0,75.0,-100.00,SW,231,13.0,23.0,75,0.00,,,0.04,1066.000000,,2013-06-28 19:01:00,
2013-06-28 15:43:00,84.0,76.0,-100.00,SW,218,13.0,21.0,77,0.00,,,0.04,1027.000000,,2013-06-28 19:43:00,
2013-06-28 15:53:00,84.0,76.0,-100.00,SW,218,13.0,21.0,77,0.00,,,0.04,1027.000000,,2013-06-28 19:53:00,
2013-06-28 16:02:00,84.0,76.0,-100.00,SW,218,13.0,21.0,77,0.00,,,0.04,1027.000000,,2013-06-28 20:02:00,
2013-06-28 16:33:00,83.0,75.0,-100.00,SW,214,14.0,24.0,78,0.00,,,0.04,913.000000,,2013-06-28 20:33:00,
2013-06-28 16:43:00,83.0,75.0,-100.00,SW,214,14.0,24.0,78,0.00,,,0.04,913.000000,,2013-06-28 20:43:00,
2013-06-28 16:52:00,83.0,75.0,-100.00,SW,214,14.0,24.0,78,0.00,,,0.04,913.000000,,2013-06-28 20:52:00,
2013-06-28 17:02:00,83.0,75.0,-100.00,SW,214,14.0,24.0,78,0.00,,,0.04,913.000000,,2013-06-28 21:02:00,
2013-06-28 17:34:00,82.0,74.0,-100.00,SSW,211,15.0,25.0,78,0.00,,,0.04,714.000000,,2013-06-28 21:34:00,
2013-06-28 17:43:00,82.0,74.0,-100.00,SSW,211,15.0,25.0,78,0.00,,,0.04,714.000000,,2013-06-28 21:43:00,
2013-06-28 17:53:00,82.0,74.0,-100.00,SSW,211,15.0,25.0,78,0.00,,,0.04,714.000000,,2013-06-28 21:53:00,
2013-06-28 18:01:00,82.0,74.0,-100.00,SSW,211,15.0,25.0,78,0.00,,,0.04,714.000000,,2013-06-28 22:01:00,
2013-06-28 18:34:00,82.0,76.0,-100.00,SSW,209,13.0,23.0,82,0.00,,,0.04,445.000000,,2013-06-28 22:34:00,
2013-06-28 18:43:00,82.0,76.0,-100.00,SSW,209,13.0,23.0,82,0.00,,,0.04,445.000000,,2013-06-28 22:43:00,
2013-06-28 18:53:00,82.0,76.0,-100.00,SSW,209,13.0,23.0,82,0.00,,,0.04,445.000000,,2013-06-28 22:53:00,
2013-06-28 19:02:00,82.0,76.0,-100.00,SSW,209,13.0,23.0,82,0.00,,,0.04,445.000000,,2013-06-28 23:02:00,
2013-06-28 19:34:00,80.0,75.0,-100.00,SW,221,12.0,26.0,85,0.00,,,0.04,206.000000,,2013-06-28 23:34:00,
2013-06-28 19:43:00,80.0,75.0,-100.00,SW,221,12.0,26.0,85,0.00,,,0.04,206.000000,,2013-06-28 23:43:00,
2013-06-28 19:53:00,80.0,75.0,-100.00,SW,221,12.0,26.0,85,0.00,,,0.04,206.000000,,2013-06-28 23:53:00,
2013-06-28 20:02:00,80.0,75.0,-100.00,SW,221,12.0,26.0,85,0.00,,,0.04,206.000000,,2013-06-29 00:02:00,
2013-06-28 20:33:00,80.0,76.0,-100.00,SW,216,12.0,22.0,88,0.00,,,0.03,46.000000,,2013-06-29 00:33:00,
2013-06-28 20:42:00,80.0,76.0,-100.00,SW,216,12.0,22.0,88,0.00,,,0.03,46.000000,,2013-06-29 00:42:00,
2013-06-28 20:52:00,80.0,76.0,-100.00,SW,216,12.0,22.0,88,0.00,,,0.03,46.000000,,2013-06-29 00:52:00,
2013-06-28 21:01:00,80.0,76.0,-100.00,SW,216,12.0,22.0,88,0.00,,,0.03,46.000000,,2013-06-29 01:01:00,
2013-06-28 21:32:00,79.0,75.0,-100.00,SW,217,13.0,22.0,89,0.00,,,0.03,1.000000,,2013-06-29 01:32:00,
2013-06-28 21:42:00,79.0,75.0,-100.00,SW,217,13.0,22.0,89,0.00,,,0.03,1.000000,,2013-06-29 01:42:00,
2013-06-28 21:52:00,79.0,75.0,-100.00,SW,217,13.0,22.0,89,0.00,,,0.03,1.000000,,2013-06-29 01:52:00,
2013-06-28 22:01:00,79.0,75.0,-100.00,SW,217,13.0,22.0,89,0.00,,,0.03,1.000000,,2013-06-29 02:01:00,
2013-06-28 22:31:00,80.0,76.0,-100.00,SW,220,13.0,23.0,88,0.00,,,0.03,0.000000,,2013-06-29 02:31:00,
2013-06-28 22:41:00,80.0,76.0,-100.00,SW,220,13.0,23.0,88,0.00,,,0.03,0.000000,,2013-06-29 02:41:00,
2013-06-28 22:51:00,80.0,76.0,-100.00,SW,220,13.0,23.0,88,0.00,,,0.03,0.000000,,2013-06-29 02:51:00,
2013-06-28 23:01:00,80.0,76.0,-100.00,SW,220,13.0,23.0,88,0.00,,,0.03,0.000000,,2013-06-29 03:01:00,
2013-06-28 23:32:00,80.0,76.0,-100.00,SW,220,10.0,23.0,89,0.00,,,0.03,0.000000,,2013-06-29 03:32:00,
2013-06-28 23:41:00,80.0,76.0,-100.00,SW,220,10.0,23.0,89,0.00,,,0.03,0.000000,,2013-06-29 03:41:00,
2013-06-28 23:51:00,80.0,76.0,-100.00,SW,220,10.0,23.0,89,0.00,,,0.03,0.000000,,2013-06-29 03:51:00,